Time;durP1;ratioP1;P1;durP2;ratioP2;P2;SDS_P1;SDS_P2;PMS_P1;PMS_P2;Temp;Humidity;BMP_temperature;BMP_pressure;BME280_temperature;BME280_humidity;BME280_pressure;Samples;Min_cycle;Max_cycle;Signal;HPM_P1;HPM_P2
2021/10/04 00:01:01;;;;;;;0.00;0.00;;;;;;;10.37;49.27;99831.06;4918442;29;20035;-79
2021/10/04 00:03:27;;;;;;;0.00;0.00;;;;;;;10.37;49.17;99830.25;4918252;29;20091;-79
2021/10/04 00:05:52;;;;;;;0.00;0.00;;;;;;;10.37;49.30;99828.38;4918517;29;20020;-82
2021/10/04 00:08:18;;;;;;;0.00;0.00;;;;;;;10.35;48.92;99825.16;4918288;29;20114;-81
2021/10/04 00:10:43;;;;;;;0.00;0.00;;;;;;;10.34;49.31;99823.53;4917948;29;20024;-76
2021/10/04 00:13:09;;;;;;;0.00;0.00;;;;;;;10.33;48.97;99829.16;4934888;29;20483;-75
2021/10/04 00:15:34;;;;;;;0.00;0.00;;;;;;;10.31;49.90;99832.06;4934800;29;20091;-75
2021/10/04 00:18:00;;;;;;;0.00;0.00;;;;;;;10.31;49.02;99831.25;4918220;29;20079;-75
2021/10/04 00:20:26;;;;;;;0.00;0.00;;;;;;;10.27;49.27;99835.50;4934715;29;20034;-75
2021/10/04 00:22:54;;;;;;;0.00;0.00;;;;;;;10.23;48.63;99835.22;4912493;29;20051;-76
2021/10/04 00:25:19;;;;;;;0.00;0.00;;;;;;;10.19;48.65;99832.25;4899146;29;20122;-75
2021/10/04 00:27:45;;;;;;;0.00;0.00;;;;;;;10.15;48.89;99833.78;4916424;29;20502;-78
2021/10/04 00:30:12;;;;;;;0.00;0.00;;;;;;;10.11;48.98;99824.69;4898665;29;20115;-77
2021/10/04 00:32:40;;;;;;;0.00;0.00;;;;;;;10.07;49.65;99829.72;4916213;29;20079;-76
2021/10/04 00:35:07;;;;;;;0.00;0.00;;;;;;;10.02;49.17;99820.84;4899072;29;20027;-76
2021/10/04 00:37:32;;;;;;;0.00;0.00;;;;;;;9.99;48.77;99826.69;4915119;29;20106;-76
2021/10/04 00:39:58;;;;;;;0.00;0.00;;;;;;;9.92;49.27;99819.69;4899030;29;20114;-76
2021/10/04 00:42:24;;;;;;;0.00;0.00;;;;;;;9.90;49.34;99816.47;4915870;29;20028;-76
2021/10/04 00:44:50;;;;;;;0.00;0.00;;;;;;;9.87;49.50;99819.63;4898616;29;20099;-76
2021/10/04 00:47:17;;;;;;;0.00;0.00;;;;;;;9.84;49.73;99819.31;4915506;29;20532;-76
2021/10/04 00:49:43;;;;;;;0.00;0.00;;;;;;;9.84;49.59;99820.16;4915055;29;20468;-77
2021/10/04 00:52:09;;;;;;;0.00;0.00;;;;;;;9.80;49.81;99827.03;4898766;29;20115;-76
2021/10/04 00:54:35;;;;;;;0.00;0.00;;;;;;;9.74;49.63;99814.69;4898555;29;20024;-77
2021/10/04 00:57:01;;;;;;;0.00;0.00;;;;;;;9.74;50.09;99817.34;4898645;29;20063;-76
2021/10/04 00:59:26;;;;;;;0.00;0.00;;;;;;;9.76;49.93;99816.06;4898184;29;20435;-75
2021/10/04 01:01:52;;;;;;;0.00;0.00;;;;;;;9.72;49.91;99817.59;4915261;29;20167;-76
2021/10/04 01:04:18;;;;;;;0.00;0.00;;;;;;;9.71;49.60;99812.53;4898541;29;20027;-76
2021/10/04 01:06:43;;;;;;;0.00;0.00;;;;;;;9.69;49.80;99815.44;4914690;29;20445;-75
2021/10/04 01:09:09;;;;;;;0.00;0.00;;;;;;;9.66;49.72;99810.59;4913652;29;20032;-76
2021/10/04 01:11:34;;;;;;;0.00;0.00;;;;;;;9.64;49.34;99814.59;4914722;29;20028;-76
2021/10/04 01:14:00;;;;;;;0.00;0.00;;;;;;;9.62;49.71;99812.16;4915307;29;20035;-75
2021/10/04 01:16:25;;;;;;;0.00;0.00;;;;;;;9.59;49.58;99804.66;4898180;29;20388;-75
2021/10/04 01:18:50;;;;;;;0.00;0.00;;;;;;;9.57;49.56;99812.09;4915413;29;20028;-80
2021/10/04 01:21:16;;;;;;;0.00;0.00;;;;;;;9.56;50.30;99813.16;4898330;29;20028;-79
2021/10/04 01:23:42;;;;;;;0.00;0.00;;;;;;;9.54;50.25;99823.28;4909553;29;20102;-78
2021/10/04 01:26:07;;;;;;;0.00;0.00;;;;;;;9.53;49.91;99824.34;4933966;29;20024;-79
2021/10/04 01:28:33;;;;;;;0.00;0.00;;;;;;;9.53;50.08;99824.34;4916669;29;20546;-79
2021/10/04 01:30:58;;;;;;;0.00;0.00;;;;;;;9.52;50.04;99822.72;4917094;29;20023;-82
2021/10/04 01:33:24;;;;;;;0.00;0.00;;;;;;;9.48;50.04;99817.06;4916752;29;20037;-80
2021/10/04 01:35:50;;;;;;;0.00;0.00;;;;;;;9.49;50.18;99829.38;4916996;29;20035;-77
2021/10/04 01:38:15;;;;;;;0.00;0.00;;;;;;;9.45;50.07;99818.38;4917082;29;20478;-76
2021/10/04 01:40:43;;;;;;;0.00;0.00;;;;;;;9.45;50.06;99821.06;4916489;29;20572;-81
2021/10/04 01:43:12;;;;;;;0.00;0.00;;;;;;;9.45;50.35;99828.25;4916568;29;20602;-76
2021/10/04 01:45:38;;;;;;;0.00;0.00;;;;;;;9.43;50.44;99814.34;4933704;29;20136;-80
2021/10/04 01:48:04;;;;;;;0.03;0.03;;;;;;;9.43;50.14;99817.81;4916822;29;20055;-82
2021/10/04 01:50:33;;;;;;;0.00;0.00;;;;;;;9.43;50.74;99825.81;4916351;29;20116;-79
2021/10/04 01:52:58;;;;;;;0.00;0.00;;;;;;;9.43;51.14;99820.47;4916967;29;20024;-79
2021/10/04 01:55:24;;;;;;;0.00;0.00;;;;;;;9.44;50.52;99830.13;4916728;29;20086;-83
2021/10/04 01:57:51;;;;;;;0.00;0.00;;;;;;;9.43;50.60;99823.16;4916705;29;20487;-88
2021/10/04 02:00:19;;;;;;;0.00;0.00;;;;;;;9.42;51.17;99823.41;4918018;29;20491;-88
2021/10/04 02:02:46;;;;;;;;;;;;;;;9.40;50.54;99825.53;4923667;29;20027;-88
2021/10/04 02:05:13;;;;;;;0.00;0.00;;;;;;;9.35;51.07;99826.28;4921184;29;19997;-83
2021/10/04 02:07:40;;;;;;;0.00;0.00;;;;;;;9.31;50.90;99819.81;4921129;29;20024;-79
2021/10/04 02:10:12;;;;;;;0.00;0.00;;;;;;;9.28;50.93;99828.31;4922400;29;20091;-79
2021/10/04 02:12:38;;;;;;;0.00;0.00;;;;;;;9.25;50.68;99826.97;4920835;29;20513;-79
2021/10/04 02:15:04;;;;;;;0.00;0.00;;;;;;;9.21;51.25;99828.50;4920276;29;20488;-80
2021/10/04 02:17:31;;;;;;;0.00;0.00;;;;;;;9.19;51.57;99825.28;4919736;29;20031;-84
2021/10/04 02:19:56;;;;;;;0.00;0.00;;;;;;;9.17;51.78;99835.38;4920163;29;20028;-87
2021/10/04 02:22:22;;;;;;;0.00;0.00;;;;;;;9.17;51.50;99827.38;4920203;29;20490;-83
2021/10/04 02:24:48;;;;;;;0.00;0.00;;;;;;;9.15;51.11;99832.16;4920154;29;20024;-83
2021/10/04 02:27:14;;;;;;;0.00;0.00;;;;;;;9.09;51.59;99825.97;4920212;29;20455;-83
2021/10/04 02:29:39;;;;;;;0.00;0.00;;;;;;;9.09;51.77;99833.97;4919705;29;20468;-82
2021/10/04 02:32:05;;;;;;;0.00;0.00;;;;;;;9.08;51.69;99834.19;4920056;29;20031;-82
2021/10/04 02:34:31;;;;;;;0.00;0.00;;;;;;;9.05;52.08;99834.69;4919860;29;20019;-78
2021/10/04 02:36:56;;;;;;;0.00;0.00;;;;;;;9.04;51.67;99838.41;4919730;29;20443;-80
2021/10/04 02:39:22;;;;;;;0.00;0.00;;;;;;;9.02;51.80;99836.00;4920040;29;20031;-80
2021/10/04 02:41:47;;;;;;;0.00;0.00;;;;;;;8.99;51.69;99833.00;4919553;29;20530;-78
2021/10/04 02:44:13;;;;;;;0.00;0.00;;;;;;;8.95;51.81;99838.81;4936755;29;20035;-81
2021/10/04 02:46:38;;;;;;;0.00;0.00;;;;;;;8.94;52.09;99847.09;4919345;29;20503;-78
2021/10/04 02:49:04;;;;;;;0.00;0.00;;;;;;;8.93;52.45;99843.59;4919874;29;20023;-79
2021/10/04 02:51:29;;;;;;;0.00;0.00;;;;;;;8.92;52.48;99859.84;4919612;29;20031;-82
2021/10/04 02:53:55;;;;;;;0.00;0.00;;;;;;;8.90;52.65;99852.09;4919725;29;20031;-84
2021/10/04 02:56:20;;;;;;;0.00;0.00;;;;;;;8.88;52.47;99854.19;4919791;29;20183;-85
2021/10/04 02:58:46;;;;;;;0.00;0.00;;;;;;;8.87;52.52;99857.13;4919415;29;20038;-83
2021/10/04 03:01:12;;;;;;;0.00;0.00;;;;;;;8.86;52.91;99856.31;4919295;29;20517;-84
2021/10/04 03:03:37;;;;;;;0.00;0.00;;;;;;;8.84;52.58;99853.09;4919338;29;20023;-80
2021/10/04 03:06:03;;;;;;;0.00;0.00;;;;;;;8.82;52.68;99849.84;4919492;29;20028;-79
2021/10/04 03:08:28;;;;;;;0.00;0.00;;;;;;;8.80;52.82;99852.75;4918571;29;20364;-85
2021/10/04 03:10:54;;;;;;;0.00;0.00;;;;;;;8.79;53.17;99858.34;4919086;29;20119;-82
2021/10/04 03:13:19;;;;;;;0.00;0.00;;;;;;;8.77;53.10;99861.22;4918698;29;20118;-79
2021/10/04 03:15:45;;;;;;;0.10;0.10;;;;;;;8.76;53.19;99859.66;4919304;29;20035;-78
2021/10/04 03:18:11;;;;;;;0.00;0.00;;;;;;;8.75;53.17;99858.03;4919362;29;20106;-82
2021/10/04 03:20:37;;;;;;;0.00;0.00;;;;;;;8.77;52.92;99861.22;4919089;29;20547;-80
2021/10/04 03:23:03;;;;;;;0.00;0.00;;;;;;;8.76;52.32;99864.16;4918359;29;20036;-82
2021/10/04 03:25:29;;;;;;;0.00;0.00;;;;;;;8.75;52.79;99859.88;4918578;29;20569;-79
2021/10/04 03:27:54;;;;;;;0.00;0.00;;;;;;;8.71;52.86;99858.75;4918857;29;20118;-79
2021/10/04 03:30:20;;;;;;;0.00;0.00;;;;;;;8.69;52.85;99869.66;4919188;29;20030;-80
2021/10/04 03:32:46;;;;;;;0.00;0.00;;;;;;;8.67;53.04;99861.09;4918910;29;20035;-80
2021/10/04 03:35:12;;;;;;;0.00;0.00;;;;;;;8.66;53.13;99862.13;4918742;29;20070;-78
2021/10/04 03:37:38;;;;;;;0.00;0.00;;;;;;;8.67;52.98;99860.25;4918805;29;20459;-79
2021/10/04 03:40:05;;;;;;;0.00;0.00;;;;;;;8.66;53.36;99859.47;4918987;29;20038;-80
2021/10/04 03:42:31;;;;;;;0.00;0.00;;;;;;;8.64;53.45;99865.06;4918610;29;20057;-79
2021/10/04 03:44:56;;;;;;;0.00;0.00;;;;;;;8.63;53.34;99860.78;4918657;29;20016;-79
2021/10/04 03:47:22;;;;;;;0.00;0.00;;;;;;;8.61;53.82;99854.06;4918338;29;20480;-80
2021/10/04 03:49:47;;;;;;;0.00;0.00;;;;;;;8.60;53.58;99863.13;4918311;29;20039;-80
2021/10/04 03:52:13;;;;;;;0.00;0.00;;;;;;;8.58;53.81;99855.38;4918342;29;20037;-79
2021/10/04 03:54:38;;;;;;;0.00;0.00;;;;;;;8.60;54.11;99861.25;4918468;29;20303;-78
2021/10/04 03:57:04;;;;;;;0.00;0.00;;;;;;;8.57;53.97;99864.41;4919065;29;20027;-79
2021/10/04 03:59:30;;;;;;;0.00;0.00;;;;;;;8.56;54.06;99865.44;4918089;29;20051;-78
2021/10/04 04:01:55;;;;;;;0.00;0.00;;;;;;;8.54;54.25;99864.88;4918066;29;20032;-76
2021/10/04 04:04:20;;;;;;;0.00;0.00;;;;;;;8.49;54.22;99859.47;4935488;29;20035;-78
2021/10/04 04:06:46;;;;;;;0.00;0.00;;;;;;;8.48;54.29;99872.00;4918136;29;20551;-80
2021/10/04 04:09:11;;;;;;;0.00;0.00;;;;;;;8.47;54.16;99875.72;4918025;29;20517;-79
2021/10/04 04:11:41;;;;;;;0.00;0.00;;;;;;;8.44;55.27;99881.47;4917972;29;20023;-82
2021/10/04 04:14:07;;;;;;;0.20;0.20;;;;;;;8.40;55.07;99876.88;4916060;29;20032;-78
2021/10/04 04:16:32;;;;;;;0.00;0.00;;;;;;;8.38;54.99;99876.31;4909974;29;20483;-79
2021/10/04 04:18:58;;;;;;;0.00;0.00;;;;;;;8.38;55.48;99884.31;4917633;29;20028;-78
2021/10/04 04:21:23;;;;;;;0.00;0.00;;;;;;;8.32;55.27;99878.09;4919698;29;20368;-77
2021/10/04 04:23:49;;;;;;;0.00;0.00;;;;;;;8.36;55.01;99889.06;4936865;29;20039;-78
2021/10/04 04:26:14;;;;;;;0.00;0.00;;;;;;;8.35;55.54;99885.59;4919838;29;20043;-80
2021/10/04 04:28:39;;;;;;;0.00;0.00;;;;;;;8.35;55.59;99872.28;4918658;29;20039;-78
2021/10/04 04:31:06;;;;;;;0.00;0.00;;;;;;;8.39;55.24;99878.75;4899232;29;20503;-77
2021/10/04 04:33:32;;;;;;;0.00;0.00;;;;;;;8.40;55.82;99876.88;4915371;29;20020;-77
2021/10/04 04:35:57;;;;;;;0.00;0.00;;;;;;;8.43;55.41;99874.53;4914817;29;20036;-78
2021/10/04 04:38:23;;;;;;;0.05;0.05;;;;;;;8.50;55.77;99877.09;4915133;29;20020;-78
2021/10/04 04:40:49;;;;;;;0.10;0.10;;;;;;;8.61;55.06;99883.41;4915391;29;20046;-79
2021/10/04 04:43:14;;;;;;;0.00;0.00;;;;;;;8.74;55.24;99885.75;4914547;29;20032;-80
2021/10/04 04:45:40;;;;;;;0.00;0.00;;;;;;;8.89;55.16;99889.69;4914353;29;20474;-78
2021/10/04 04:48:05;;;;;;;0.00;0.00;;;;;;;9.05;54.96;99885.41;4914186;29;20480;-78
2021/10/04 04:50:31;;;;;;;0.00;0.00;;;;;;;9.23;54.63;99884.31;4914473;29;20499;-78
2021/10/04 04:52:57;;;;;;;0.00;0.00;;;;;;;9.42;54.75;99877.63;4915584;29;20444;-78
2021/10/04 04:55:23;;;;;;;0.00;0.00;;;;;;;9.66;54.27;99877.38;4898474;29;20123;-79
2021/10/04 04:57:48;;;;;;;0.00;0.00;;;;;;;9.89;53.52;99880.84;4914205;29;20671;-78
2021/10/04 05:00:16;;;;;;;0.00;0.00;;;;;;;10.08;53.45;99873.28;4914311;29;20035;-79
2021/10/04 05:02:45;;;;;;;0.10;0.10;;;;;;;10.32;52.85;99881.00;4913907;29;20114;-78
2021/10/04 05:05:13;;;;;;;0.00;0.00;;;;;;;10.57;52.48;99880.44;4914304;29;20028;-79
2021/10/04 05:07:39;;;;;;;0.00;0.00;;;;;;;10.82;52.02;99884.38;4913949;29;20496;-79
2021/10/04 05:10:06;;;;;;;0.00;0.00;;;;;;;11.09;51.76;99889.63;4914119;29;20123;-78
2021/10/04 05:12:32;;;;;;;0.00;0.00;;;;;;;11.34;50.40;99883.63;4914085;29;20023;-79
2021/10/04 05:14:58;;;;;;;0.00;0.00;;;;;;;11.63;50.50;99887.75;4913884;29;20028;-77
2021/10/04 05:17:23;;;;;;;0.05;0.05;;;;;;;11.88;50.03;99883.53;4898338;29;20031;-78
2021/10/04 05:19:48;;;;;;;0.00;0.00;;;;;;;12.10;48.93;99886.06;4913764;29;20055;-77
2021/10/04 05:22:14;;;;;;;0.00;0.00;;;;;;;12.35;49.13;99881.81;4898342;29;20395;-78
2021/10/04 05:24:39;;;;;;;0.00;0.00;;;;;;;12.55;48.17;99881.81;4914702;29;20111;-76
2021/10/04 05:27:05;;;;;;;0.00;0.00;;;;;;;12.77;47.97;99884.22;4913487;29;20036;-79
2021/10/04 05:29:30;;;;;;;0.10;0.10;;;;;;;12.96;47.92;99880.97;4913614;29;20035;-77
2021/10/04 05:31:56;;;;;;;0.00;0.00;;;;;;;13.15;47.09;99883.91;4914904;29;20020;-77
2021/10/04 05:34:21;;;;;;;0.10;0.10;;;;;;;13.33;47.60;99890.56;4913371;29;20032;-77
2021/10/04 05:36:47;;;;;;;0.00;0.00;;;;;;;13.48;47.04;99887.06;4913517;29;20403;-78
2021/10/04 05:39:12;;;;;;;0.00;0.00;;;;;;;13.61;47.27;99894.53;4913859;29;20391;-78
2021/10/04 05:41:38;;;;;;;0.00;0.00;;;;;;;13.78;47.08;99890.69;4897760;29;20143;-77
2021/10/04 05:44:04;;;;;;;0.20;0.20;;;;;;;13.90;47.10;99888.47;4913737;29;20050;-77
2021/10/04 05:46:29;;;;;;;0.20;0.20;;;;;;;14.05;48.22;99894.88;4913661;29;20035;-78
2021/10/04 05:48:55;;;;;;;0.00;0.00;;;;;;;14.23;48.52;99896.06;4913369;29;20035;-78
2021/10/04 05:51:20;;;;;;;0.00;0.00;;;;;;;14.36;48.49;99894.66;4913659;29;20054;-78
2021/10/04 05:53:46;;;;;;;0.00;0.00;;;;;;;14.50;47.89;99884.03;4913256;29;20036;-78
2021/10/04 05:56:12;;;;;;;0.10;0.10;;;;;;;14.63;48.32;99885.28;4913603;29;20127;-78
2021/10/04 05:58:38;;;;;;;0.10;0.10;;;;;;;14.76;47.57;99887.38;4914285;29;20454;-78
2021/10/04 06:01:03;;;;;;;0.00;0.00;;;;;;;14.89;47.58;99889.41;4913679;29;20021;-78
2021/10/04 06:03:29;;;;;;;0.10;0.10;;;;;;;15.04;47.45;99887.66;4914787;29;20110;-78
2021/10/04 06:05:54;;;;;;;0.00;0.00;;;;;;;15.17;47.05;99894.22;4913287;29;20028;-78
2021/10/04 06:08:20;;;;;;;0.00;0.00;;;;;;;15.25;47.41;99898.22;4913426;29;20448;-78
2021/10/04 06:10:45;;;;;;;0.08;0.08;;;;;;;15.36;47.70;99900.50;4897466;29;20059;-77
2021/10/04 06:13:10;;;;;;;0.00;0.00;;;;;;;15.48;47.77;99905.47;4913503;29;20034;-77
2021/10/04 06:15:36;;;;;;;0.10;0.10;;;;;;;15.59;47.57;99900.78;4915103;29;20031;-78
2021/10/04 06:18:01;;;;;;;0.10;0.10;;;;;;;15.67;47.43;99904.72;4897482;29;20462;-77
2021/10/04 06:20:28;;;;;;;0.10;0.10;;;;;;;15.76;47.57;99904.88;4897602;29;20024;-80
2021/10/04 06:22:54;;;;;;;0.00;0.00;;;;;;;15.87;48.93;99908.28;4897202;29;20048;-78
2021/10/04 06:25:19;;;;;;;0.10;0.10;;;;;;;15.97;49.84;99908.94;4913490;29;20544;-78
2021/10/04 06:27:50;;;;;;;0.00;0.00;;;;;;;16.12;49.47;99910.63;4913300;29;20039;-77
2021/10/04 06:30:18;;;;;;;0.10;0.10;;;;;;;16.20;49.93;99911.88;4913459;29;20028;-78
2021/10/04 06:32:44;;;;;;;0.10;0.10;;;;;;;16.23;50.10;99902.41;4914745;29;20032;-77
2021/10/04 06:35:10;;;;;;;0.10;0.10;;;;;;;16.34;50.57;99909.22;4913419;29;20088;-78
2021/10/04 06:37:35;;;;;;;0.10;0.10;;;;;;;16.39;51.33;99911.06;4913303;29;20028;-78
2021/10/04 06:40:01;;;;;;;0.17;0.17;;;;;;;16.51;51.66;99905.22;4912983;29;20031;-78
2021/10/04 06:42:26;;;;;;;0.00;0.00;;;;;;;16.63;51.54;99913.66;4897351;29;20111;-77
2021/10/04 06:44:52;;;;;;;0.00;0.00;;;;;;;16.71;51.58;99921.09;4913041;29;20043;-77
2021/10/04 06:47:18;;;;;;;0.00;0.00;;;;;;;16.79;51.29;99915.00;4915672;29;20071;-77
2021/10/04 06:49:43;;;;;;;0.10;0.10;;;;;;;16.83;50.73;99920.59;4916471;29;20055;-78
2021/10/04 06:52:09;;;;;;;0.05;0.05;;;;;;;16.79;50.94;99920.38;4916691;29;20047;-77
2021/10/04 06:54:34;;;;;;;0.00;0.00;;;;;;;16.62;50.56;99912.88;4917865;29;20491;-78
2021/10/04 06:57:01;;;;;;;0.28;0.28;;;;;;;16.47;50.38;99926.59;4916287;29;20115;-78
2021/10/04 06:59:26;;;;;;;0.10;0.10;;;;;;;16.31;50.86;99926.03;4916213;29;20048;-78
2021/10/04 07:01:52;;;;;;;0.10;0.10;;;;;;;16.15;51.58;99920.06;4916131;29;20075;-77
2021/10/04 07:04:17;;;;;;;0.10;0.10;;;;;;;16.08;52.15;99923.09;4916360;29;20373;-78
2021/10/04 07:06:42;;;;;;;0.03;0.03;;;;;;;16.05;52.53;99926.41;4915997;29;20024;-78
2021/10/04 07:09:08;;;;;;;0.10;0.10;;;;;;;16.06;52.58;99929.88;4916407;29;20547;-78
2021/10/04 07:11:33;;;;;;;0.32;0.32;;;;;;;16.07;52.89;99931.50;4916297;29;20024;-78
2021/10/04 07:13:59;;;;;;;0.75;0.40;;;;;;;16.02;53.56;99924.25;4916199;29;20055;-78
2021/10/04 07:16:25;;;;;;;0.10;0.10;;;;;;;16.00;54.05;99921.88;4916298;29;20028;-77
2021/10/04 07:18:50;;;;;;;0.10;0.10;;;;;;;16.06;54.10;99929.88;4916025;29;20490;-77
2021/10/04 07:21:16;;;;;;;0.10;0.10;;;;;;;16.01;54.51;99925.34;4916358;29;20032;-77
2021/10/04 07:23:43;;;;;;;0.17;0.17;;;;;;;16.03;55.35;99933.97;4917199;29;20044;-79
2021/10/04 07:26:10;;;;;;;0.08;0.08;;;;;;;15.97;56.20;99925.13;4916091;29;20096;-79
2021/10/04 07:28:36;;;;;;;0.50;0.50;;;;;;;15.97;57.23;99932.44;4916045;29;20494;-79
2021/10/04 07:31:01;;;;;;;0.10;0.10;;;;;;;15.96;57.34;99930.81;4915859;29;20111;-78
2021/10/04 07:33:27;;;;;;;0.30;0.30;;;;;;;15.93;59.24;99928.69;4900343;29;20119;-79
2021/10/04 07:35:55;;;;;;;0.60;0.60;;;;;;;15.84;58.20;99932.06;4915840;29;20118;-78
2021/10/04 07:38:21;;;;;;;0.10;0.10;;;;;;;15.84;56.91;99936.63;4899842;29;20032;-79
2021/10/04 07:40:47;;;;;;;0.25;0.25;;;;;;;15.80;57.11;99936.38;4915702;29;20066;-79
2021/10/04 07:43:12;;;;;;;1.27;0.57;;;;;;;15.76;56.45;99940.75;4900163;29;20055;-79
2021/10/04 07:45:38;;;;;;;1.60;1.52;;;;;;;15.74;57.44;99932.13;4915608;29;20035;-79
2021/10/04 07:48:04;;;;;;;0.75;0.75;;;;;;;15.75;56.69;99925.66;4915418;29;20024;-79
2021/10/04 07:50:30;;;;;;;0.10;0.10;;;;;;;15.84;57.68;99929.38;4915532;29;20139;-79
2021/10/04 07:52:55;;;;;;;0.15;0.15;;;;;;;15.93;57.35;99923.31;4915478;29;20056;-79
2021/10/04 07:55:22;;;;;;;0.38;0.38;;;;;;;15.94;58.11;99920.34;4915536;29;20066;-79
2021/10/04 07:57:51;;;;;;;1.55;0.50;;;;;;;16.06;57.44;99925.28;4914751;29;20031;-79
2021/10/04 08:00:18;;;;;;;0.25;0.25;;;;;;;16.14;55.66;99921.16;4915399;29;20052;-78
2021/10/04 08:02:44;;;;;;;0.25;0.20;;;;;;;16.19;54.85;99923.75;4915190;29;20110;-77
2021/10/04 08:05:10;;;;;;;0.00;0.00;;;;;;;16.28;55.08;99924.72;4915271;29;20126;-79
2021/10/04 08:07:36;;;;;;;0.10;0.10;;;;;;;16.40;54.21;99918.06;4915406;29;20016;-79
2021/10/04 08:10:03;;;;;;;0.10;0.10;;;;;;;16.54;53.60;99921.63;4916053;29;20096;-79
2021/10/04 08:12:28;;;;;;;0.20;0.20;;;;;;;16.63;53.31;99919.84;4916610;29;20055;-77
2021/10/04 08:14:55;;;;;;;0.10;0.10;;;;;;;16.69;54.21;99915.19;4915067;29;20051;-78
2021/10/04 08:17:21;;;;;;;0.10;0.10;;;;;;;16.73;52.95;99918.09;4915117;29;20399;-77
2021/10/04 08:19:47;;;;;;;0.30;0.30;;;;;;;16.81;53.27;99918.22;4914846;29;20032;-78
2021/10/04 08:22:13;;;;;;;0.00;0.00;;;;;;;16.88;52.75;99909.72;4915305;29;20043;-78
2021/10/04 08:24:39;;;;;;;0.10;0.10;;;;;;;16.92;54.01;99909.97;4915043;29;20373;-77
2021/10/04 08:27:04;;;;;;;0.40;0.40;;;;;;;16.93;53.57;99906.16;4914738;29;20084;-77
2021/10/04 08:29:30;;;;;;;0.32;0.32;;;;;;;16.96;53.13;99905.56;4914997;29;20028;-78
2021/10/04 08:31:55;;;;;;;0.10;0.10;;;;;;;17.00;53.12;99911.97;4914393;29;20092;-78
2021/10/04 08:34:21;;;;;;;0.63;0.63;;;;;;;17.03;52.92;99899.75;4915097;29;20028;-78
2021/10/04 08:36:47;;;;;;;0.25;0.25;;;;;;;17.10;53.04;99909.09;4916086;29;20074;-78
2021/10/04 08:39:12;;;;;;;0.20;0.20;;;;;;;17.16;53.37;99906.28;4914797;29;20435;-77
2021/10/04 08:41:38;;;;;;;1.45;0.57;;;;;;;17.26;53.17;99898.00;4899306;29;20028;-78
2021/10/04 08:44:07;;;;;;;0.85;0.85;;;;;;;17.31;52.53;99892.50;4914404;29;20035;-78
2021/10/04 08:46:38;;;;;;;0.00;0.00;;;;;;;17.42;52.43;99891.19;4914619;29;20028;-79
2021/10/04 08:49:04;;;;;;;0.20;0.20;;;;;;;17.43;51.92;99903.59;4914389;29;20047;-79
2021/10/04 08:51:30;;;;;;;0.70;0.70;;;;;;;17.36;52.17;99889.69;4916095;29;20032;-79
2021/10/04 08:53:55;;;;;;;0.30;0.30;;;;;;;17.37;52.13;99885.88;4914305;29;20023;-79
2021/10/04 08:56:21;;;;;;;0.00;0.00;;;;;;;17.41;51.96;99888.78;4914451;29;20035;-79
2021/10/04 08:58:46;;;;;;;0.10;0.10;;;;;;;17.42;52.07;99874.97;4914140;29;20055;-79
2021/10/04 09:01:12;;;;;;;0.10;0.10;;;;;;;17.54;51.74;99876.34;4915632;29;20088;-79
2021/10/04 09:03:57;;;;;;;0.00;0.00;;;;;;;17.62;51.92;99877.56;4914470;29;20468;-79
2021/10/04 09:06:24;;;;;;;0.00;0.00;;;;;;;17.65;51.44;99863.41;4915391;29;20035;-79
2021/10/04 09:08:51;;;;;;;0.10;0.10;;;;;;;17.76;51.18;99870.22;4913901;29;20027;-79
2021/10/04 09:11:27;;;;;;;0.10;0.10;;;;;;;17.85;51.14;99867.59;4913574;29;20058;-79
2021/10/04 09:13:52;;;;;;;0.10;0.10;;;;;;;17.91;50.21;99872.59;4913903;29;20053;-78
2021/10/04 09:16:18;;;;;;;0.00;0.00;;;;;;;17.91;50.25;99869.88;4914047;29;20035;-79
2021/10/04 09:18:43;;;;;;;0.10;0.10;;;;;;;18.02;50.64;99859.66;4915138;29;20027;-78
2021/10/04 09:21:09;;;;;;;0.10;0.10;;;;;;;18.10;50.29;99870.84;4913885;29;20032;-79
2021/10/04 09:23:52;;;;;;;0.20;0.20;;;;;;;18.10;50.01;99860.81;4913731;29;20052;-79
2021/10/04 09:26:26;;;;;;;0.28;0.28;;;;;;;18.21;50.93;99864.09;4914104;29;20500;-79
2021/10/04 09:29:07;;;;;;;0.30;0.30;;;;;;;18.22;49.94;99847.56;4913886;29;20096;-79
2021/10/04 09:31:35;;;;;;;0.03;0.03;;;;;;;18.32;50.08;99840.28;4914045;29;20111;-79
2021/10/04 09:34:06;;;;;;;0.00;0.00;;;;;;;18.37;49.60;99843.69;4913907;29;20566;-79
2021/10/04 09:36:37;;;;;;;0.10;0.10;;;;;;;18.37;49.34;99840.16;4914206;29;20092;-79
2021/10/04 09:39:18;;;;;;;0.43;0.43;;;;;;;18.38;48.93;99839.88;4913534;29;20028;-79
2021/10/04 09:42:05;;;;;;;0.73;0.73;;;;;;;18.33;48.62;99847.31;4913934;29;20024;-79
2021/10/04 09:45:04;;;;;;;0.00;0.00;;;;;;;18.28;48.36;99836.59;4915597;29;20032;-79
2021/10/04 09:47:33;;;;;;;0.13;0.13;;;;;;;18.27;47.99;99833.09;4897345;29;20040;-79
2021/10/04 09:50:08;;;;;;;0.20;0.20;;;;;;;18.26;47.93;99830.69;4913702;29;20036;-79
2021/10/04 09:53:01;;;;;;;0.75;0.75;;;;;;;18.24;47.60;99822.88;4913729;29;20028;-79
2021/10/04 09:55:35;;;;;;;1.65;0.65;;;;;;;18.33;47.24;99831.84;4913943;29;20088;-79
2021/10/04 09:58:05;;;;;;;0.73;0.73;;;;;;;18.40;47.65;99828.72;4913512;29;20088;-79
2021/10/04 10:00:36;;;;;;;0.10;0.10;;;;;;;18.48;48.07;99822.56;4915024;29;20028;-79
2021/10/04 10:03:03;;;;;;;0.65;0.65;;;;;;;18.57;47.82;99819.91;4913549;29;20025;-79
2021/10/04 10:05:32;;;;;;;0.20;0.20;;;;;;;18.66;47.69;99811.81;4913597;29;20383;-79
2021/10/04 10:07:57;;;;;;;0.10;0.10;;;;;;;18.77;46.97;99818.53;4913298;29;20365;-78
2021/10/04 10:10:23;;;;;;;0.17;0.17;;;;;;;18.76;45.78;99821.56;4913702;29;20031;-79
2021/10/04 10:12:49;;;;;;;1.05;0.95;;;;;;;18.67;45.64;99814.19;4913524;29;20024;-79
2021/10/04 10:15:22;;;;;;;0.50;0.50;;;;;;;18.67;46.66;99814.19;4913334;29;20151;-79
2021/10/04 10:17:49;;;;;;;0.20;0.20;;;;;;;18.63;46.13;99805.09;4913499;29;20476;-79
2021/10/04 10:20:18;;;;;;;0.25;0.25;;;;;;;18.58;45.90;99793.59;4913472;29;20024;-79
2021/10/04 10:22:52;;;;;;;0.25;0.25;;;;;;;18.58;46.48;99794.41;4916584;29;20060;-79
2021/10/04 10:25:36;;;;;;;0.20;0.20;;;;;;;18.65;46.70;99791.25;4918486;29;20028;-78
2021/10/04 10:28:30;;;;;;;0.30;0.30;;;;;;;18.71;46.73;99790.81;4917008;29;20498;-78
2021/10/04 10:30:56;;;;;;;0.10;0.10;;;;;;;18.76;46.28;99779.03;4916471;29;20028;-79
2021/10/04 10:33:46;;;;;;;0.10;0.10;;;;;;;18.83;45.90;99789.41;4916851;29;20054;-79
2021/10/04 10:36:12;;;;;;;0.10;0.10;;;;;;;18.86;46.00;99783.38;4916798;29;20038;-78
2021/10/04 10:39:10;;;;;;;0.73;0.25;;;;;;;18.96;45.95;99782.31;4916900;29;20028;-78
2021/10/04 10:41:36;;;;;;;;;;;;;;;19.06;45.58;99781.22;4870351;29;20403;-78
2021/10/04 10:44:13;;;;;;;0.10;0.10;;;;;;;19.08;44.95;99777.09;4916812;29;19907;-78
2021/10/04 10:46:54;;;;;;;0.10;0.10;;;;;;;19.06;44.36;99768.47;4916941;29;20164;-78
2021/10/04 10:49:56;;;;;;;0.50;0.50;;;;;;;19.03;44.28;99774.53;4917135;29;20683;-78
2021/10/04 10:52:25;;;;;;;0.10;0.10;;;;;;;18.98;43.85;99766.53;4916953;29;20024;-78
2021/10/04 10:54:52;;;;;;;0.30;0.30;;;;;;;18.96;44.06;99763.34;4916741;29;20039;-78
2021/10/04 10:57:20;;;;;;;0.20;0.20;;;;;;;18.95;44.56;99748.19;4916556;29;20027;-78
2021/10/04 10:59:45;;;;;;;0.20;0.20;;;;;;;18.95;44.70;99748.97;4916627;29;20511;-78
2021/10/04 11:02:48;;;;;;;0.10;0.10;;;;;;;19.05;45.07;99747.88;4916536;29;20048;-78
2021/10/04 11:05:38;;;;;;;0.30;0.30;;;;;;;19.16;44.74;99743.78;4900648;29;20024;-78
2021/10/04 11:08:15;;;;;;;0.10;0.10;;;;;;;19.22;44.38;99741.72;4917768;29;20024;-78
2021/10/04 11:11:06;;;;;;;1.75;0.47;;;;;;;19.38;43.85;99741.25;4916261;29;20058;-78
2021/10/04 11:13:36;;;;;;;0.40;0.40;;;;;;;19.47;43.33;99744.75;4893848;29;20036;-78
2021/10/04 11:16:04;;;;;;;0.85;0.85;;;;;;;19.55;41.68;99730.41;4916026;29;20032;-78
2021/10/04 11:18:42;;;;;;;0.10;0.10;;;;;;;19.58;41.11;99732.50;4916279;29;20024;-78
2021/10/04 11:21:10;;;;;;;0.10;0.10;;;;;;;19.61;41.21;99745.41;4916332;29;20383;-78
2021/10/04 11:23:47;;;;;;;0.00;0.00;;;;;;;19.63;41.50;99726.91;4916109;29;20111;-78
2021/10/04 11:26:18;;;;;;;0.05;0.05;;;;;;;19.65;41.36;99727.38;4916984;29;20123;-78
2021/10/04 11:28:46;;;;;;;0.20;0.20;;;;;;;19.68;41.06;99723.22;4916361;29;20423;-78
2021/10/04 11:31:12;;;;;;;0.10;0.10;;;;;;;19.74;40.57;99732.78;4916080;29;20119;-78
2021/10/04 11:33:48;;;;;;;0.15;0.15;;;;;;;19.74;40.98;99713.81;4915079;29;20064;-77
2021/10/04 11:36:15;;;;;;;0.00;0.00;;;;;;;19.73;41.18;99730.41;4915863;29;20024;-78
2021/10/04 11:39:03;;;;;;;0.00;0.00;;;;;;;19.64;41.22;99714.13;4915946;29;20087;-78